sensor_id;sensor_type;location;lat;lon;timestamp;P1;durP1;ratioP1;P2;durP2;ratioP2
58874;SDS011;44652;49.040;12.126;2024-01-30T05:30:47;2.00;;;1.20;;
58874;SDS011;44652;49.040;12.126;2024-01-30T05:33:14;5.10;;;3.35;;
58874;SDS011;44652;49.040;12.126;2024-01-30T05:35:40;5.15;;;2.70;;
58874;SDS011;44652;49.040;12.126;2024-01-30T05:38:07;6.03;;;2.78;;
58874;SDS011;44652;49.040;12.126;2024-01-30T05:40:34;3.28;;;2.42;;
58874;SDS011;44652;49.040;12.126;2024-01-30T05:43:01;5.93;;;2.65;;
58874;SDS011;44652;49.040;12.126;2024-01-30T05:45:29;10.05;;;4.05;;
58874;SDS011;44652;49.040;12.126;2024-01-30T05:47:55;3.33;;;2.20;;
58874;SDS011;44652;49.040;12.126;2024-01-30T05:50:22;4.28;;;2.45;;
58874;SDS011;44652;49.040;12.126;2024-01-30T05:52:50;7.28;;;2.80;;
58874;SDS011;44652;49.040;12.126;2024-01-30T05:55:16;9.20;;;4.40;;
58874;SDS011;44652;49.040;12.126;2024-01-30T05:57:43;3.63;;;2.72;;
58874;SDS011;44652;49.040;12.126;2024-01-30T06:00:10;9.00;;;3.80;;
58874;SDS011;44652;49.040;12.126;2024-01-30T06:02:37;4.72;;;2.78;;
58874;SDS011;44652;49.040;12.126;2024-01-30T06:05:04;4.03;;;2.38;;
58874;SDS011;44652;49.040;12.126;2024-01-30T06:07:31;4.60;;;2.90;;
58874;SDS011;44652;49.040;12.126;2024-01-30T06:10:02;3.80;;;2.85;;
58874;SDS011;44652;49.040;12.126;2024-01-30T06:12:29;11.00;;;4.63;;
58874;SDS011;44652;49.040;12.126;2024-01-30T06:14:56;2.95;;;2.05;;
58874;SDS011;44652;49.040;12.126;2024-01-30T06:17:23;6.03;;;4.00;;
58874;SDS011;44652;49.040;12.126;2024-01-30T06:19:50;6.20;;;4.45;;
58874;SDS011;44652;49.040;12.126;2024-01-30T06:22:17;5.93;;;3.55;;
58874;SDS011;44652;49.040;12.126;2024-01-30T06:24:44;5.82;;;3.65;;
58874;SDS011;44652;49.040;12.126;2024-01-30T06:27:16;8.75;;;3.30;;
58874;SDS011;44652;49.040;12.126;2024-01-30T06:29:44;5.77;;;3.67;;
58874;SDS011;44652;49.040;12.126;2024-01-30T06:32:10;7.13;;;4.72;;
58874;SDS011;44652;49.040;12.126;2024-01-30T06:34:37;11.52;;;5.50;;
58874;SDS011;44652;49.040;12.126;2024-01-30T06:37:05;9.02;;;5.65;;
58874;SDS011;44652;49.040;12.126;2024-01-30T06:39:32;8.27;;;3.97;;
58874;SDS011;44652;49.040;12.126;2024-01-30T06:41:58;6.85;;;3.22;;
58874;SDS011;44652;49.040;12.126;2024-01-30T06:44:25;8.82;;;5.70;;
58874;SDS011;44652;49.040;12.126;2024-01-30T06:46:53;10.02;;;5.13;;
58874;SDS011;44652;49.040;12.126;2024-01-30T06:49:20;9.65;;;4.60;;
58874;SDS011;44652;49.040;12.126;2024-01-30T06:51:48;6.82;;;4.05;;
58874;SDS011;44652;49.040;12.126;2024-01-30T06:54:15;6.70;;;4.03;;
58874;SDS011;44652;49.040;12.126;2024-01-30T06:56:42;11.68;;;4.95;;
58874;SDS011;44652;49.040;12.126;2024-01-30T06:59:08;6.00;;;3.35;;
58874;SDS011;44652;49.040;12.126;2024-01-30T07:01:35;8.07;;;4.88;;
58874;SDS011;44652;49.040;12.126;2024-01-30T07:04:02;6.57;;;3.88;;
58874;SDS011;44652;49.040;12.126;2024-01-30T07:06:29;7.57;;;4.55;;
58874;SDS011;44652;49.040;12.126;2024-01-30T07:08:55;7.30;;;3.95;;
58874;SDS011;44652;49.040;12.126;2024-01-30T07:11:22;10.85;;;5.97;;
58874;SDS011;44652;49.040;12.126;2024-01-30T07:13:50;7.07;;;4.70;;
58874;SDS011;44652;49.040;12.126;2024-01-30T07:16:18;8.80;;;6.63;;
58874;SDS011;44652;49.040;12.126;2024-01-30T07:18:45;8.90;;;4.50;;
58874;SDS011;44652;49.040;12.126;2024-01-30T07:21:12;7.35;;;5.03;;
58874;SDS011;44652;49.040;12.126;2024-01-30T07:23:38;8.82;;;5.13;;
58874;SDS011;44652;49.040;12.126;2024-01-30T07:26:05;9.85;;;5.70;;
58874;SDS011;44652;49.040;12.126;2024-01-30T07:28:33;11.63;;;4.43;;
58874;SDS011;44652;49.040;12.126;2024-01-30T07:31:00;6.28;;;4.97;;
58874;SDS011;44652;49.040;12.126;2024-01-30T07:33:28;6.53;;;5.05;;
58874;SDS011;44652;49.040;12.126;2024-01-30T07:35:54;12.90;;;8.50;;
58874;SDS011;44652;49.040;12.126;2024-01-30T07:38:21;14.05;;;4.90;;
58874;SDS011;44652;49.040;12.126;2024-01-30T07:40:48;8.68;;;5.18;;
58874;SDS011;44652;49.040;12.126;2024-01-30T07:43:16;8.80;;;5.22;;
58874;SDS011;44652;49.040;12.126;2024-01-30T07:45:42;8.07;;;5.43;;
58874;SDS011;44652;49.040;12.126;2024-01-30T07:48:09;7.88;;;5.15;;
58874;SDS011;44652;49.040;12.126;2024-01-30T07:50:36;6.93;;;4.07;;
58874;SDS011;44652;49.040;12.126;2024-01-30T07:53:03;13.98;;;6.28;;
58874;SDS011;44652;49.040;12.126;2024-01-30T07:55:30;7.47;;;5.10;;
58874;SDS011;44652;49.040;12.126;2024-01-30T08:00:25;8.73;;;4.80;;
58874;SDS011;44652;49.040;12.126;2024-01-30T08:02:53;8.48;;;4.57;;
58874;SDS011;44652;49.040;12.126;2024-01-30T08:05:22;7.70;;;4.93;;
58874;SDS011;44652;49.040;12.126;2024-01-30T08:07:50;8.38;;;5.18;;
58874;SDS011;44652;49.040;12.126;2024-01-30T08:10:17;9.70;;;4.95;;
58874;SDS011;44652;49.040;12.126;2024-01-30T08:15:12;5.90;;;3.95;;
58874;SDS011;44652;49.040;12.126;2024-01-30T08:17:39;5.65;;;3.78;;
58874;SDS011;44652;49.040;12.126;2024-01-30T08:20:07;9.00;;;5.68;;
58874;SDS011;44652;49.040;12.126;2024-01-30T08:22:35;9.70;;;6.32;;
58874;SDS011;44652;49.040;12.126;2024-01-30T08:25:01;10.45;;;4.95;;
58874;SDS011;44652;49.040;12.126;2024-01-30T08:27:28;5.43;;;3.85;;
58874;SDS011;44652;49.040;12.126;2024-01-30T08:29:55;11.50;;;6.45;;
58874;SDS011;44652;49.040;12.126;2024-01-30T08:32:22;9.88;;;6.18;;
58874;SDS011;44652;49.040;12.126;2024-01-30T08:34:50;13.85;;;5.82;;
58874;SDS011;44652;49.040;12.126;2024-01-30T08:37:17;11.30;;;6.57;;
58874;SDS011;44652;49.040;12.126;2024-01-30T08:39:44;7.43;;;5.78;;
58874;SDS011;44652;49.040;12.126;2024-01-30T08:42:11;9.73;;;6.03;;
58874;SDS011;44652;49.040;12.126;2024-01-30T08:44:37;12.20;;;6.88;;
58874;SDS011;44652;49.040;12.126;2024-01-30T08:47:05;6.70;;;4.20;;
58874;SDS011;44652;49.040;12.126;2024-01-30T08:49:32;11.90;;;5.32;;
58874;SDS011;44652;49.040;12.126;2024-01-30T08:51:59;7.47;;;4.72;;
58874;SDS011;44652;49.040;12.126;2024-01-30T08:54:26;9.63;;;5.88;;
58874;SDS011;44652;49.040;12.126;2024-01-30T08:56:52;9.13;;;5.95;;
58874;SDS011;44652;49.040;12.126;2024-01-30T08:59:19;6.35;;;4.93;;
58874;SDS011;44652;49.040;12.126;2024-01-30T09:01:46;7.05;;;5.05;;
58874;SDS011;44652;49.040;12.126;2024-01-30T09:04:28;13.95;;;5.10;;
58874;SDS011;44652;49.040;12.126;2024-01-30T09:06:55;13.25;;;5.35;;
58874;SDS011;44652;49.040;12.126;2024-01-30T09:09:22;11.77;;;6.57;;
58874;SDS011;44652;49.040;12.126;2024-01-30T09:11:49;10.30;;;5.60;;
58874;SDS011;44652;49.040;12.126;2024-01-30T09:14:15;5.85;;;4.18;;
58874;SDS011;44652;49.040;12.126;2024-01-30T09:16:42;10.35;;;6.05;;
58874;SDS011;44652;49.040;12.126;2024-01-30T09:19:09;7.15;;;5.30;;
58874;SDS011;44652;49.040;12.126;2024-01-30T09:21:35;9.55;;;5.40;;
58874;SDS011;44652;49.040;12.126;2024-01-30T09:24:02;10.75;;;7.25;;
58874;SDS011;44652;49.040;12.126;2024-01-30T09:26:30;8.52;;;6.35;;
58874;SDS011;44652;49.040;12.126;2024-01-30T09:28:57;7.22;;;5.28;;
58874;SDS011;44652;49.040;12.126;2024-01-30T09:31:24;14.32;;;6.95;;
58874;SDS011;44652;49.040;12.126;2024-01-30T09:33:51;13.98;;;8.88;;
58874;SDS011;44652;49.040;12.126;2024-01-30T09:36:20;8.55;;;5.35;;
58874;SDS011;44652;49.040;12.126;2024-01-30T09:38:47;8.27;;;5.05;;
58874;SDS011;44652;49.040;12.126;2024-01-30T09:41:14;8.75;;;5.72;;
58874;SDS011;44652;49.040;12.126;2024-01-30T09:43:42;7.77;;;5.60;;
58874;SDS011;44652;49.040;12.126;2024-01-30T09:46:14;11.77;;;6.68;;
58874;SDS011;44652;49.040;12.126;2024-01-30T09:48:46;17.92;;;6.43;;
58874;SDS011;44652;49.040;12.126;2024-01-30T09:51:14;9.73;;;6.40;;
58874;SDS011;44652;49.040;12.126;2024-01-30T09:53:42;10.40;;;6.60;;
58874;SDS011;44652;49.040;12.126;2024-01-30T09:56:10;14.85;;;7.20;;
58874;SDS011;44652;49.040;12.126;2024-01-30T09:58:38;12.07;;;6.07;;
58874;SDS011;44652;49.040;12.126;2024-01-30T10:01:06;12.40;;;5.90;;
58874;SDS011;44652;49.040;12.126;2024-01-30T10:03:33;15.43;;;4.75;;
58874;SDS011;44652;49.040;12.126;2024-01-30T10:06:00;10.48;;;4.45;;
58874;SDS011;44652;49.040;12.126;2024-01-30T10:08:27;11.82;;;6.20;;
58874;SDS011;44652;49.040;12.126;2024-01-30T10:10:56;9.93;;;6.35;;
58874;SDS011;44652;49.040;12.126;2024-01-30T10:13:25;10.02;;;6.30;;
58874;SDS011;44652;49.040;12.126;2024-01-30T10:15:52;12.77;;;7.70;;
58874;SDS011;44652;49.040;12.126;2024-01-30T10:18:19;11.20;;;7.32;;
58874;SDS011;44652;49.040;12.126;2024-01-30T10:20:46;8.65;;;5.30;;
58874;SDS011;44652;49.040;12.126;2024-01-30T10:23:13;10.20;;;5.55;;
58874;SDS011;44652;49.040;12.126;2024-01-30T10:25:40;11.63;;;6.95;;
58874;SDS011;44652;49.040;12.126;2024-01-30T10:28:08;11.70;;;6.40;;
58874;SDS011;44652;49.040;12.126;2024-01-30T10:30:34;14.40;;;7.35;;
58874;SDS011;44652;49.040;12.126;2024-01-30T10:33:01;11.50;;;6.13;;
58874;SDS011;44652;49.040;12.126;2024-01-30T10:35:28;10.10;;;7.10;;
58874;SDS011;44652;49.040;12.126;2024-01-30T10:37:56;11.73;;;7.38;;
58874;SDS011;44652;49.040;12.126;2024-01-30T10:40:25;20.23;;;6.10;;
58874;SDS011;44652;49.040;12.126;2024-01-30T10:42:55;12.40;;;8.23;;
58874;SDS011;44652;49.040;12.126;2024-01-30T10:45:23;11.73;;;6.15;;
58874;SDS011;44652;49.040;12.126;2024-01-30T10:47:54;10.85;;;6.50;;
58874;SDS011;44652;49.040;12.126;2024-01-30T10:50:25;10.20;;;7.43;;
58874;SDS011;44652;49.040;12.126;2024-01-30T10:52:52;18.95;;;7.13;;
58874;SDS011;44652;49.040;12.126;2024-01-30T10:55:21;17.98;;;7.88;;
58874;SDS011;44652;49.040;12.126;2024-01-30T10:57:49;13.85;;;7.72;;
58874;SDS011;44652;49.040;12.126;2024-01-30T11:00:16;16.77;;;6.95;;
58874;SDS011;44652;49.040;12.126;2024-01-30T11:02:46;12.43;;;6.38;;
58874;SDS011;44652;49.040;12.126;2024-01-30T11:05:14;8.65;;;5.75;;
58874;SDS011;44652;49.040;12.126;2024-01-30T11:07:42;9.27;;;5.85;;
58874;SDS011;44652;49.040;12.126;2024-01-30T11:10:09;14.80;;;6.50;;
58874;SDS011;44652;49.040;12.126;2024-01-30T11:12:41;10.48;;;6.15;;
58874;SDS011;44652;49.040;12.126;2024-01-30T11:15:11;14.50;;;7.30;;
58874;SDS011;44652;49.040;12.126;2024-01-30T11:17:50;11.80;;;7.15;;
58874;SDS011;44652;49.040;12.126;2024-01-30T11:20:22;12.43;;;7.63;;
58874;SDS011;44652;49.040;12.126;2024-01-30T11:22:52;13.20;;;7.03;;
58874;SDS011;44652;49.040;12.126;2024-01-30T11:25:22;11.40;;;6.90;;
58874;SDS011;44652;49.040;12.126;2024-01-30T11:27:54;15.50;;;7.15;;
58874;SDS011;44652;49.040;12.126;2024-01-30T11:30:29;9.85;;;6.10;;
58874;SDS011;44652;49.040;12.126;2024-01-30T11:33:05;14.70;;;7.80;;
58874;SDS011;44652;49.040;12.126;2024-01-30T11:35:34;9.70;;;6.85;;
58874;SDS011;44652;49.040;12.126;2024-01-30T11:38:02;12.05;;;7.20;;
58874;SDS011;44652;49.040;12.126;2024-01-30T11:40:32;12.85;;;7.28;;
58874;SDS011;44652;49.040;12.126;2024-01-30T11:43:01;10.65;;;7.45;;
58874;SDS011;44652;49.040;12.126;2024-01-30T11:45:29;14.52;;;6.93;;
58874;SDS011;44652;49.040;12.126;2024-01-30T11:47:55;11.02;;;6.60;;
58874;SDS011;44652;49.040;12.126;2024-01-30T11:50:24;13.43;;;7.50;;
58874;SDS011;44652;49.040;12.126;2024-01-30T11:52:51;10.07;;;6.80;;
58874;SDS011;44652;49.040;12.126;2024-01-30T11:55:18;11.45;;;6.80;;
58874;SDS011;44652;49.040;12.126;2024-01-30T11:57:45;10.00;;;6.28;;
58874;SDS011;44652;49.040;12.126;2024-01-30T12:00:15;12.00;;;7.00;;
58874;SDS011;44652;49.040;12.126;2024-01-30T12:02:52;14.73;;;8.27;;
58874;SDS011;44652;49.040;12.126;2024-01-30T12:05:23;12.05;;;7.70;;
58874;SDS011;44652;49.040;12.126;2024-01-30T12:07:51;12.05;;;6.95;;
58874;SDS011;44652;49.040;12.126;2024-01-30T12:10:18;15.10;;;7.03;;
58874;SDS011;44652;49.040;12.126;2024-01-30T12:12:46;13.90;;;8.05;;
58874;SDS011;44652;49.040;12.126;2024-01-30T12:15:14;15.95;;;6.82;;
58874;SDS011;44652;49.040;12.126;2024-01-30T12:17:41;10.67;;;7.03;;
58874;SDS011;44652;49.040;12.126;2024-01-30T12:20:09;16.27;;;8.70;;
58874;SDS011;44652;49.040;12.126;2024-01-30T12:25:09;14.25;;;8.07;;
58874;SDS011;44652;49.040;12.126;2024-01-30T12:27:44;13.75;;;7.32;;
58874;SDS011;44652;49.040;12.126;2024-01-30T12:30:13;11.80;;;7.47;;
58874;SDS011;44652;49.040;12.126;2024-01-30T12:32:41;10.65;;;6.43;;
58874;SDS011;44652;49.040;12.126;2024-01-30T12:35:10;11.32;;;7.03;;
58874;SDS011;44652;49.040;12.126;2024-01-30T12:37:38;18.95;;;8.20;;
58874;SDS011;44652;49.040;12.126;2024-01-30T12:40:06;15.25;;;6.82;;
58874;SDS011;44652;49.040;12.126;2024-01-30T12:42:35;13.10;;;8.20;;
58874;SDS011;44652;49.040;12.126;2024-01-30T12:45:02;10.60;;;6.80;;
58874;SDS011;44652;49.040;12.126;2024-01-30T12:49:57;11.32;;;6.50;;
58874;SDS011;44652;49.040;12.126;2024-01-30T12:52:24;11.52;;;6.75;;
58874;SDS011;44652;49.040;12.126;2024-01-30T12:54:51;15.52;;;7.28;;
58874;SDS011;44652;49.040;12.126;2024-01-30T12:57:18;9.93;;;6.03;;
58874;SDS011;44652;49.040;12.126;2024-01-30T12:59:45;12.40;;;7.10;;
58874;SDS011;44652;49.040;12.126;2024-01-30T13:02:13;12.38;;;6.80;;
58874;SDS011;44652;49.040;12.126;2024-01-30T13:04:40;11.50;;;6.50;;
58874;SDS011;44652;49.040;12.126;2024-01-30T13:07:07;11.65;;;7.03;;
58874;SDS011;44652;49.040;12.126;2024-01-30T13:09:34;12.25;;;7.85;;
58874;SDS011;44652;49.040;12.126;2024-01-30T13:12:00;12.20;;;7.38;;
58874;SDS011;44652;49.040;12.126;2024-01-30T13:14:27;18.48;;;7.97;;
58874;SDS011;44652;49.040;12.126;2024-01-30T13:16:54;11.85;;;6.75;;
58874;SDS011;44652;49.040;12.126;2024-01-30T13:19:21;11.30;;;6.88;;
58874;SDS011;44652;49.040;12.126;2024-01-30T13:21:48;15.60;;;6.75;;
58874;SDS011;44652;49.040;12.126;2024-01-30T13:24:14;9.55;;;6.30;;
58874;SDS011;44652;49.040;12.126;2024-01-30T13:26:42;11.07;;;6.38;;
58874;SDS011;44652;49.040;12.126;2024-01-30T13:31:36;15.68;;;7.25;;
58874;SDS011;44652;49.040;12.126;2024-01-30T13:34:03;13.65;;;7.32;;
58874;SDS011;44652;49.040;12.126;2024-01-30T13:36:34;11.15;;;6.82;;
58874;SDS011;44652;49.040;12.126;2024-01-30T13:39:01;12.48;;;7.72;;
58874;SDS011;44652;49.040;12.126;2024-01-30T13:41:27;11.05;;;7.07;;
58874;SDS011;44652;49.040;12.126;2024-01-30T13:43:56;14.30;;;8.07;;
58874;SDS011;44652;49.040;12.126;2024-01-30T13:46:22;10.23;;;6.82;;
58874;SDS011;44652;49.040;12.126;2024-01-30T13:48:50;11.85;;;6.60;;
58874;SDS011;44652;49.040;12.126;2024-01-30T13:51:17;12.40;;;7.55;;
58874;SDS011;44652;49.040;12.126;2024-01-30T13:53:44;13.98;;;6.65;;
58874;SDS011;44652;49.040;12.126;2024-01-30T13:56:10;11.32;;;6.63;;
58874;SDS011;44652;49.040;12.126;2024-01-30T13:58:37;11.88;;;6.80;;
58874;SDS011;44652;49.040;12.126;2024-01-30T14:01:04;11.85;;;6.75;;
58874;SDS011;44652;49.040;12.126;2024-01-30T14:03:31;16.83;;;7.47;;
58874;SDS011;44652;49.040;12.126;2024-01-30T14:05:58;14.75;;;6.65;;
58874;SDS011;44652;49.040;12.126;2024-01-30T14:08:25;12.82;;;7.22;;
58874;SDS011;44652;49.040;12.126;2024-01-30T14:13:24;10.00;;;6.35;;
58874;SDS011;44652;49.040;12.126;2024-01-30T14:15:52;10.60;;;6.45;;
58874;SDS011;44652;49.040;12.126;2024-01-30T14:18:19;11.73;;;8.15;;
58874;SDS011;44652;49.040;12.126;2024-01-30T14:20:46;12.50;;;6.68;;
58874;SDS011;44652;49.040;12.126;2024-01-30T14:23:13;16.05;;;6.38;;
58874;SDS011;44652;49.040;12.126;2024-01-30T14:25:41;11.00;;;6.30;;
58874;SDS011;44652;49.040;12.126;2024-01-30T14:28:08;10.00;;;6.63;;
58874;SDS011;44652;49.040;12.126;2024-01-30T14:30:34;10.80;;;6.60;;
58874;SDS011;44652;49.040;12.126;2024-01-30T14:33:02;13.23;;;8.07;;
58874;SDS011;44652;49.040;12.126;2024-01-30T14:35:29;12.98;;;7.50;;
58874;SDS011;44652;49.040;12.126;2024-01-30T14:37:55;12.05;;;7.18;;
58874;SDS011;44652;49.040;12.126;2024-01-30T14:40:23;15.52;;;6.85;;
58874;SDS011;44652;49.040;12.126;2024-01-30T14:42:50;12.75;;;6.95;;
58874;SDS011;44652;49.040;12.126;2024-01-30T14:45:16;10.20;;;7.35;;
58874;SDS011;44652;49.040;12.126;2024-01-30T14:47:43;11.13;;;7.78;;
58874;SDS011;44652;49.040;12.126;2024-01-30T14:50:11;10.77;;;6.47;;
58874;SDS011;44652;49.040;12.126;2024-01-30T14:52:38;10.93;;;6.88;;
58874;SDS011;44652;49.040;12.126;2024-01-30T14:55:06;12.10;;;7.75;;
58874;SDS011;44652;49.040;12.126;2024-01-30T14:57:33;11.10;;;6.95;;
58874;SDS011;44652;49.040;12.126;2024-01-30T15:00:01;12.23;;;7.43;;
58874;SDS011;44652;49.040;12.126;2024-01-30T15:02:29;13.82;;;7.00;;
58874;SDS011;44652;49.040;12.126;2024-01-30T15:04:55;14.27;;;6.63;;
58874;SDS011;44652;49.040;12.126;2024-01-30T15:07:22;14.32;;;6.93;;
58874;SDS011;44652;49.040;12.126;2024-01-30T15:10:01;9.45;;;6.18;;
58874;SDS011;44652;49.040;12.126;2024-01-30T15:14:56;11.35;;;7.15;;
58874;SDS011;44652;49.040;12.126;2024-01-30T15:17:23;15.20;;;6.30;;
58874;SDS011;44652;49.040;12.126;2024-01-30T15:19:50;11.70;;;5.90;;
58874;SDS011;44652;49.040;12.126;2024-01-30T15:22:17;12.17;;;6.03;;
58874;SDS011;44652;49.040;12.126;2024-01-30T15:24:44;11.52;;;7.53;;
58874;SDS011;44652;49.040;12.126;2024-01-30T15:27:11;11.05;;;6.80;;
58874;SDS011;44652;49.040;12.126;2024-01-30T15:29:38;11.30;;;7.35;;
58874;SDS011;44652;49.040;12.126;2024-01-30T15:32:04;13.95;;;7.90;;
58874;SDS011;44652;49.040;12.126;2024-01-30T15:34:32;8.27;;;5.72;;
58874;SDS011;44652;49.040;12.126;2024-01-30T15:36:58;11.20;;;5.65;;
58874;SDS011;44652;49.040;12.126;2024-01-30T15:39:28;13.68;;;6.72;;
58874;SDS011;44652;49.040;12.126;2024-01-30T15:41:55;12.35;;;6.07;;
58874;SDS011;44652;49.040;12.126;2024-01-30T15:44:25;11.35;;;7.20;;
58874;SDS011;44652;49.040;12.126;2024-01-30T15:46:51;9.70;;;6.40;;
58874;SDS011;44652;49.040;12.126;2024-01-30T15:49:21;15.88;;;6.82;;
58874;SDS011;44652;49.040;12.126;2024-01-30T15:51:48;13.80;;;7.20;;
58874;SDS011;44652;49.040;12.126;2024-01-30T15:54:14;16.15;;;6.95;;
58874;SDS011;44652;49.040;12.126;2024-01-30T15:56:41;11.05;;;5.65;;
58874;SDS011;44652;49.040;12.126;2024-01-30T15:59:12;11.52;;;6.55;;
58874;SDS011;44652;49.040;12.126;2024-01-30T16:01:39;9.85;;;5.80;;
58874;SDS011;44652;49.040;12.126;2024-01-30T16:04:07;12.40;;;6.40;;
58874;SDS011;44652;49.040;12.126;2024-01-30T16:06:33;17.92;;;5.57;;
58874;SDS011;44652;49.040;12.126;2024-01-30T16:09:00;10.68;;;5.97;;
58874;SDS011;44652;49.040;12.126;2024-01-30T16:11:27;8.38;;;5.93;;
58874;SDS011;44652;49.040;12.126;2024-01-30T16:13:54;7.65;;;5.50;;
58874;SDS011;44652;49.040;12.126;2024-01-30T16:16:21;11.52;;;6.10;;
58874;SDS011;44652;49.040;12.126;2024-01-30T16:18:47;15.80;;;7.18;;
58874;SDS011;44652;49.040;12.126;2024-01-30T16:21:15;11.90;;;7.30;;
58874;SDS011;44652;49.040;12.126;2024-01-30T16:23:42;10.40;;;5.85;;
58874;SDS011;44652;49.040;12.126;2024-01-30T16:26:09;10.15;;;5.90;;
58874;SDS011;44652;49.040;12.126;2024-01-30T16:28:35;13.90;;;7.43;;
58874;SDS011;44652;49.040;12.126;2024-01-30T16:31:03;12.95;;;6.63;;
58874;SDS011;44652;49.040;12.126;2024-01-30T16:33:30;13.77;;;7.03;;
58874;SDS011;44652;49.040;12.126;2024-01-30T16:35:58;10.27;;;6.20;;
58874;SDS011;44652;49.040;12.126;2024-01-30T16:38:25;10.10;;;6.82;;
58874;SDS011;44652;49.040;12.126;2024-01-30T16:40:51;9.98;;;6.43;;
58874;SDS011;44652;49.040;12.126;2024-01-30T16:43:18;11.95;;;6.18;;
58874;SDS011;44652;49.040;12.126;2024-01-30T16:45:45;10.20;;;6.18;;
58874;SDS011;44652;49.040;12.126;2024-01-30T16:48:12;12.65;;;6.53;;
58874;SDS011;44652;49.040;12.126;2024-01-30T16:50:43;9.90;;;6.10;;
58874;SDS011;44652;49.040;12.126;2024-01-30T16:53:10;19.02;;;7.93;;
58874;SDS011;44652;49.040;12.126;2024-01-30T16:55:37;9.02;;;6.15;;
58874;SDS011;44652;49.040;12.126;2024-01-30T16:58:04;10.00;;;6.03;;
58874;SDS011;44652;49.040;12.126;2024-01-30T17:00:31;11.05;;;5.95;;
58874;SDS011;44652;49.040;12.126;2024-01-30T17:02:58;11.57;;;7.57;;
58874;SDS011;44652;49.040;12.126;2024-01-30T17:05:32;8.38;;;5.50;;
58874;SDS011;44652;49.040;12.126;2024-01-30T17:08:00;10.32;;;6.55;;
58874;SDS011;44652;49.040;12.126;2024-01-30T17:10:29;11.63;;;5.53;;
58874;SDS011;44652;49.040;12.126;2024-01-30T17:12:59;8.80;;;5.20;;
58874;SDS011;44652;49.040;12.126;2024-01-30T17:15:26;13.93;;;6.85;;
58874;SDS011;44652;49.040;12.126;2024-01-30T17:17:53;14.23;;;6.85;;
58874;SDS011;44652;49.040;12.126;2024-01-30T17:20:20;6.20;;;4.67;;
58874;SDS011;44652;49.040;12.126;2024-01-30T17:22:47;10.05;;;6.45;;
58874;SDS011;44652;49.040;12.126;2024-01-30T17:25:14;9.68;;;5.22;;
58874;SDS011;44652;49.040;12.126;2024-01-30T17:27:41;9.80;;;6.03;;
58874;SDS011;44652;49.040;12.126;2024-01-30T17:30:10;12.65;;;6.53;;
58874;SDS011;44652;49.040;12.126;2024-01-30T17:32:38;11.25;;;5.32;;
58874;SDS011;44652;49.040;12.126;2024-01-30T17:35:04;11.40;;;6.28;;
58874;SDS011;44652;49.040;12.126;2024-01-30T17:37:31;10.55;;;6.20;;
58874;SDS011;44652;49.040;12.126;2024-01-30T17:39:59;11.23;;;5.85;;
58874;SDS011;44652;49.040;12.126;2024-01-30T17:42:26;8.48;;;5.68;;
58874;SDS011;44652;49.040;12.126;2024-01-30T17:44:53;9.18;;;6.28;;
58874;SDS011;44652;49.040;12.126;2024-01-30T17:47:19;8.30;;;5.47;;
58874;SDS011;44652;49.040;12.126;2024-01-30T17:49:46;14.07;;;5.90;;
58874;SDS011;44652;49.040;12.126;2024-01-30T17:52:13;11.32;;;5.72;;
58874;SDS011;44652;49.040;12.126;2024-01-30T17:54:40;13.13;;;6.43;;
58874;SDS011;44652;49.040;12.126;2024-01-30T18:13:19;9.95;;;6.78;;
58874;SDS011;44652;49.040;12.126;2024-01-30T18:20:04;14.90;;;5.60;;
58874;SDS011;44652;49.040;12.126;2024-01-30T18:22:31;12.60;;;7.30;;
58874;SDS011;44652;49.040;12.126;2024-01-30T18:24:58;11.13;;;5.13;;
58874;SDS011;44652;49.040;12.126;2024-01-30T18:27:25;10.25;;;6.28;;
58874;SDS011;44652;49.040;12.126;2024-01-30T18:46:45;9.30;;;5.43;;
58874;SDS011;44652;49.040;12.126;2024-01-30T18:53:37;8.55;;;6.38;;
58874;SDS011;44652;49.040;12.126;2024-01-30T18:56:04;13.07;;;7.47;;
58874;SDS011;44652;49.040;12.126;2024-01-30T19:02:57;14.43;;;6.47;;
58874;SDS011;44652;49.040;12.126;2024-01-30T19:05:24;10.65;;;5.82;;
58874;SDS011;44652;49.040;12.126;2024-01-30T19:16:50;13.05;;;7.97;;
58874;SDS011;44652;49.040;12.126;2024-01-30T19:32:47;9.15;;;6.10;;
58874;SDS011;44652;49.040;12.126;2024-01-30T19:42:49;13.50;;;6.22;;
58874;SDS011;44652;49.040;12.126;2024-01-30T19:45:18;5.85;;;5.00;;
58874;SDS011;44652;49.040;12.126;2024-01-30T19:55:09;13.20;;;7.72;;
58874;SDS011;44652;49.040;12.126;2024-01-30T20:04:46;10.52;;;6.57;;
58874;SDS011;44652;49.040;12.126;2024-01-30T20:07:16;12.10;;;7.43;;
58874;SDS011;44652;49.040;12.126;2024-01-30T20:09:44;9.27;;;6.93;;
58874;SDS011;44652;49.040;12.126;2024-01-30T20:12:11;12.98;;;8.40;;
58874;SDS011;44652;49.040;12.126;2024-01-30T20:18:55;14.52;;;7.15;;
58874;SDS011;44652;49.040;12.126;2024-01-30T20:21:22;12.75;;;6.85;;
58874;SDS011;44652;49.040;12.126;2024-01-30T20:23:49;14.47;;;8.53;;
58874;SDS011;44652;49.040;12.126;2024-01-30T20:26:16;13.43;;;7.57;;
58874;SDS011;44652;49.040;12.126;2024-01-30T20:28:43;11.95;;;6.85;;
58874;SDS011;44652;49.040;12.126;2024-01-30T20:31:11;8.32;;;6.20;;
58874;SDS011;44652;49.040;12.126;2024-01-30T20:33:38;10.80;;;7.20;;
58874;SDS011;44652;49.040;12.126;2024-01-30T20:36:08;14.30;;;6.93;;
58874;SDS011;44652;49.040;12.126;2024-01-30T20:38:35;14.13;;;7.55;;
58874;SDS011;44652;49.040;12.126;2024-01-30T20:49:29;15.02;;;7.10;;
58874;SDS011;44652;49.040;12.126;2024-01-30T21:00:08;18.23;;;7.20;;
58874;SDS011;44652;49.040;12.126;2024-01-30T21:06:49;14.23;;;6.70;;
58874;SDS011;44652;49.040;12.126;2024-01-30T21:09:16;13.27;;;8.20;;
58874;SDS011;44652;49.040;12.126;2024-01-30T21:11:43;18.05;;;9.60;;
58874;SDS011;44652;49.040;12.126;2024-01-30T21:18:34;10.98;;;7.20;;
58874;SDS011;44652;49.040;12.126;2024-01-30T21:42:15;14.55;;;7.10;;
58874;SDS011;44652;49.040;12.126;2024-01-30T21:44:48;13.18;;;6.72;;
58874;SDS011;44652;49.040;12.126;2024-01-30T21:51:58;10.15;;;6.93;;
58874;SDS011;44652;49.040;12.126;2024-01-30T21:54:31;9.23;;;5.53;;
58874;SDS011;44652;49.040;12.126;2024-01-30T22:00:23;17.23;;;8.00;;
58874;SDS011;44652;49.040;12.126;2024-01-30T22:02:50;12.40;;;7.05;;
58874;SDS011;44652;49.040;12.126;2024-01-30T22:05:17;10.88;;;6.95;;
58874;SDS011;44652;49.040;12.126;2024-01-30T22:07:43;9.98;;;5.55;;
58874;SDS011;44652;49.040;12.126;2024-01-30T22:10:10;14.82;;;6.70;;
58874;SDS011;44652;49.040;12.126;2024-01-30T22:12:37;9.18;;;6.03;;
58874;SDS011;44652;49.040;12.126;2024-01-30T22:15:05;10.10;;;5.43;;
58874;SDS011;44652;49.040;12.126;2024-01-30T22:17:32;8.75;;;4.63;;
58874;SDS011;44652;49.040;12.126;2024-01-30T22:19:58;9.77;;;4.57;;
58874;SDS011;44652;49.040;12.126;2024-01-30T22:22:26;8.18;;;4.50;;
58874;SDS011;44652;49.040;12.126;2024-01-30T22:24:52;8.35;;;5.63;;
58874;SDS011;44652;49.040;12.126;2024-01-30T22:27:19;8.02;;;4.70;;
58874;SDS011;44652;49.040;12.126;2024-01-30T22:29:46;8.65;;;5.20;;
58874;SDS011;44652;49.040;12.126;2024-01-30T22:32:15;7.68;;;4.78;;
58874;SDS011;44652;49.040;12.126;2024-01-30T22:34:42;10.60;;;5.90;;
58874;SDS011;44652;49.040;12.126;2024-01-30T22:37:09;8.02;;;5.18;;
58874;SDS011;44652;49.040;12.126;2024-01-30T22:39:36;8.13;;;5.60;;
58874;SDS011;44652;49.040;12.126;2024-01-30T22:42:03;7.97;;;5.45;;
58874;SDS011;44652;49.040;12.126;2024-01-30T22:44:30;7.40;;;4.68;;